Time;durP1;ratioP1;P1;durP2;ratioP2;P2;SDS_P1;SDS_P2;PMS_P1;PMS_P2;Temp;Humidity;BMP_temperature;BMP_pressure;BME280_temperature;BME280_humidity;BME280_pressure;Samples;Min_cycle;Max_cycle;Signal;HPM_P1;HPM_P2
2023/04/01 00:00:19;;;;;;;;;;;;;;;8.75;100.00;99155.84;5061443;28;19917;-45
2023/04/01 00:02:44;;;;;;;;;;;;;;;8.75;100.00;99155.00;5057318;28;19924;-46
2023/04/01 00:05:11;;;;;;;;;;;;;;;8.72;100.00;99160.09;5057570;28;19916;-44
2023/04/01 00:07:37;;;;;;;;;;;;;;;8.70;100.00;99160.09;5063964;28;19990;-45
2023/04/01 00:10:03;;;;;;;;;;;;;;;8.72;100.00;99157.53;5042183;28;20362;-45
2023/04/01 00:12:28;;;;;;;;;;;;;;;8.87;100.00;99167.91;5058553;28;19913;-47
2023/04/01 00:14:53;;;;;;;;;;;;;;;8.79;100.00;99161.84;5057414;28;19948;-45
2023/04/01 00:17:18;;;;;;;;;;;;;;;8.73;100.00;99165.22;5057415;28;20006;-44
2023/04/01 00:19:44;;;;;;;;;;;;;;;8.71;100.00;99168.63;5052961;28;19984;-45
2023/04/01 00:22:11;;;;;;;;;;;;;;;8.72;100.00;99170.34;5053758;28;19944;-44
2023/04/01 00:24:36;;;;;;;;;;;;;;;8.70;100.00;99165.22;5050452;28;19917;-45
2023/04/01 00:27:02;;;;;;;;;;;;;;;8.73;100.00;99172.91;5054929;28;19921;-45
2023/04/01 00:29:29;;;;;;;;;;;;;;;8.70;100.00;99164.34;5055486;28;19912;-44
2023/04/01 00:31:54;;;;;;;;;;;;;;;8.67;100.00;99169.44;5051999;28;19971;-44
2023/04/01 00:34:20;;;;;;;;;;;;;;;8.71;100.00;99176.31;5055302;28;19956;-45
2023/04/01 00:36:45;;;;;;;;;;;;;;;8.70;100.00;99167.75;5054618;28;19919;-47
2023/04/01 00:39:10;;;;;;;;;;;;;;;8.68;100.00;99179.72;5055850;28;19975;-46
2023/04/01 00:41:36;;;;;;;;;;;;;;;8.70;100.00;99170.34;5051033;28;19919;-47
2023/04/01 00:44:18;;;;;;;;;;;;;;;8.70;100.00;99183.16;5054589;28;19927;-46
2023/04/01 00:46:44;;;;;;;;;;;;;;;8.69;100.00;99181.44;5052272;28;19912;-47
2023/04/01 00:49:09;;;;;;;;;;;;;;;8.71;100.00;99189.13;5035679;28;19916;-44
2023/04/01 00:51:37;;;;;;;;;;;;;;;8.71;100.00;99187.41;5058728;28;19916;-46
2023/04/01 00:54:03;;;;;;;;;;;;;;;8.71;100.00;99191.69;5064241;28;19909;-45
2023/04/01 00:56:36;;;;;;;;;;;;;;;8.77;100.00;99190.03;5054161;28;19924;-44
2023/04/01 00:59:04;;;;;;;;;;;;;;;8.72;100.00;99195.97;5053977;28;22105;-44
2023/04/01 01:01:30;;;;;;;;;;;;;;;8.77;100.00;99199.44;5058040;28;20019;-44
2023/04/01 01:03:56;;;;;;;;;;;;;;;8.79;100.00;99195.16;5062462;28;19923;-44
2023/04/01 01:06:40;;;;;;;;;;;;;;;8.75;100.00;99201.13;5036483;28;20302;-45
2023/04/01 01:09:22;;;;;;;;;;;;;;;8.78;100.00;99193.44;5059094;28;19909;-44
2023/04/01 01:11:50;;;;;;;;;;;;;;;8.73;100.00;99193.41;5054482;28;20325;-44
2023/04/01 01:14:34;;;;;;;;;;;;;;;8.72;100.00;99198.53;5055778;28;19919;-46
2023/04/01 01:17:22;;;;;;;;;;;;;;;8.76;100.00;99202.84;5055688;28;20011;-45
2023/04/01 01:20:06;;;;;;;;;;;;;;;8.75;100.00;99203.69;5046283;28;19913;-46
2023/04/01 01:22:36;;;;;;;;;;;;;;;8.71;100.00;99205.34;5052150;28;19915;-46
2023/04/01 01:25:11;;;;;;;;;;;;;;;8.70;100.00;99197.66;5049544;28;19913;-49
2023/04/01 01:27:39;;;;;;;;;;;;;;;8.69;100.00;99212.19;5054508;28;20007;-46
2023/04/01 01:30:04;;;;;;;;;;;;;;;8.70;100.00;99210.47;5052573;28;19916;-47
2023/04/01 01:32:41;;;;;;;;;;;;;;;8.68;100.00;99210.47;5050582;28;19916;-46
2023/04/01 01:35:15;;;;;;;;;;;;;;;8.71;100.00;99210.47;5052277;28;19970;-46
2023/04/01 01:37:42;;;;;;;;;;;;;;;8.79;100.00;99220.78;5048490;28;19913;-48
2023/04/01 01:40:09;;;;;;;;;;;;;;;8.70;100.00;99224.16;5048426;28;19940;-48
2023/04/01 01:42:37;;;;;;;;;;;;;;;8.73;100.00;99223.28;5052496;28;19961;-45
2023/04/01 01:45:03;;;;;;;;;;;;;;;8.81;100.00;99222.53;5048700;28;20322;-46
2023/04/01 01:47:29;;;;;;;;;;;;;;;8.72;100.00;99224.16;5052141;28;19916;-45
2023/04/01 01:49:55;;;;;;;;;;;;;;;8.76;100.00;99228.47;5053809;28;19922;-45
2023/04/01 01:52:21;;;;;;;;;;;;;;;8.72;100.00;99232.69;5052504;28;20382;-45
2023/04/01 01:54:50;;;;;;;;;;;;;;;8.72;100.00;99231.84;5050007;28;19922;-48
2023/04/01 01:57:17;;;;;;;;;;;;;;;8.73;100.00;99231.84;5042667;28;20000;-45
2023/04/01 01:59:44;;;;;;;;;;;;;;;8.68;100.00;99241.22;5050682;28;19920;-48
2023/04/01 02:02:10;;;;;;;;;;;;;;;8.68;100.00;99240.34;5053279;28;19970;-48
2023/04/01 02:04:40;;;;;;;;;;;;;;;8.63;100.00;99242.88;5048715;28;19944;-45
2023/04/01 02:07:10;;;;;;;;;;;;;;;8.71;100.00;99238.66;5051629;28;19995;-48
2023/04/01 02:09:37;;;;;;;;;;;;;;;8.78;100.00;99237.03;5050039;28;19966;-48
2023/04/01 02:12:05;;;;;;;;;;;;;;;8.68;100.00;99242.94;5051279;28;20614;-48
2023/04/01 02:14:41;;;;;;;;;;;;;;;8.64;100.00;99238.59;5048526;28;19939;-45
2023/04/01 02:17:12;;;;;;;;;;;;;;;8.60;100.00;99247.94;5052491;28;19956;-45
2023/04/01 02:19:47;;;;;;;;;;;;;;;8.56;100.00;99243.66;5049676;28;19927;-45
2023/04/01 02:22:14;;;;;;;;;;;;;;;8.64;100.00;99251.41;5051118;28;19974;-46
2023/04/01 02:24:41;;;;;;;;;;;;;;;8.68;100.00;99263.44;5051507;28;19953;-45
2023/04/01 02:27:06;;;;;;;;;;;;;;;8.65;100.00;99260.81;5054748;28;19913;-44
2023/04/01 02:29:31;;;;;;;;;;;;;;;8.54;100.00;99256.44;5056203;28;20316;-44
2023/04/01 02:31:58;;;;;;;;;;;;;;;8.51;100.00;99246.16;5056365;28;20319;-45
2023/04/01 02:34:24;;;;;;;;;;;;;;;8.53;100.00;99256.41;5059974;28;20371;-45
2023/04/01 02:36:49;;;;;;;;;;;;;;;8.51;100.00;99261.53;5058189;28;20328;-44
2023/04/01 02:39:15;;;;;;;;;;;;;;;8.46;100.00;99255.50;5060197;28;20360;-46
2023/04/01 02:41:41;;;;;;;;;;;;;;;8.50;100.00;99258.97;5059159;28;19923;-44
2023/04/01 02:44:07;;;;;;;;;;;;;;;8.44;100.00;99267.44;5059417;28;19924;-44
2023/04/01 02:46:32;;;;;;;;;;;;;;;8.49;100.00;99262.34;5060897;28;19953;-44
2023/04/01 02:48:57;;;;;;;;;;;;;;;8.43;100.00;99260.56;5064385;28;19948;-48
2023/04/01 02:51:22;;;;;;;;;;;;;;;8.40;100.00;99268.25;5047940;28;20302;-46
2023/04/01 02:53:48;;;;;;;;;;;;;;;8.40;100.00;99272.50;5057140;28;19962;-46
2023/04/01 02:56:13;;;;;;;;;;;;;;;8.38;100.00;99266.50;5057348;28;20017;-44
2023/04/01 02:58:38;;;;;;;;;;;;;;;8.37;100.00;99268.19;5053455;28;19924;-44
2023/04/01 03:01:03;;;;;;;;;;;;;;;8.39;100.00;99269.09;5059882;28;19924;-45
2023/04/01 03:03:29;;;;;;;;;;;;;;;8.38;100.00;99271.63;5056247;28;19917;-44
2023/04/01 03:05:56;;;;;;;;;;;;;;;8.36;100.00;99279.28;5056505;28;19923;-44
2023/04/01 03:08:21;;;;;;;;;;;;;;;8.33;100.00;99268.97;5058910;28;19923;-45
2023/04/01 03:10:46;;;;;;;;;;;;;;;8.31;100.00;99276.66;5054027;28;19921;-45
2023/04/01 03:13:12;;;;;;;;;;;;;;;8.33;100.00;99279.22;5054178;28;19930;-44
2023/04/01 03:15:37;;;;;;;;;;;;;;;8.33;100.00;99280.09;5063297;28;20015;-43
2023/04/01 03:18:03;;;;;;;;;;;;;;;8.32;100.00;99285.19;5057389;28;20555;-44
2023/04/01 03:20:28;;;;;;;;;;;;;;;8.32;100.00;99286.06;5063689;28;19991;-45
2023/04/01 03:22:53;;;;;;;;;;;;;;;8.33;100.00;99285.22;5059559;28;19916;-44
2023/04/01 03:25:18;;;;;;;;;;;;;;;8.35;100.00;99285.22;5061574;28;19923;-44
2023/04/01 03:27:44;;;;;;;;;;;;;;;8.37;100.00;99292.94;5054749;28;19924;-44
2023/04/01 03:30:10;;;;;;;;;;;;;;;8.33;100.00;99294.59;5062321;28;19908;-45
2023/04/01 03:32:35;;;;;;;;;;;;;;;8.34;100.00;99286.91;5059064;28;19920;-45
2023/04/01 03:35:00;;;;;;;;;;;;;;;8.34;100.00;99289.47;5059697;28;20362;-45
2023/04/01 03:37:26;;;;;;;;;;;;;;;8.32;100.00;99298.00;5059535;28;19912;-45
2023/04/01 03:39:51;;;;;;;;;;;;;;;8.37;100.00;99293.78;5057880;28;19916;-44
2023/04/01 03:42:17;;;;;;;;;;;;;;;8.44;100.00;99289.63;5048784;28;19923;-44
2023/04/01 03:44:42;;;;;;;;;;;;;;;8.36;100.00;99302.31;5054035;28;20001;-45
2023/04/01 03:47:09;;;;;;;;;;;;;;;8.40;100.00;99300.69;5055305;28;19967;-49
2023/04/01 03:49:34;;;;;;;;;;;;;;;8.29;100.00;99310.75;5053682;28;19925;-46
2023/04/01 03:51:59;;;;;;;;;;;;;;;8.29;100.00;99297.94;5054369;28;19928;-46
2023/04/01 03:54:25;;;;;;;;;;;;;;;8.28;100.00;99309.03;5055716;28;19919;-46
2023/04/01 03:56:50;;;;;;;;;;;;;;;8.27;100.00;99309.88;5053384;28;20468;-45
2023/04/01 03:59:16;;;;;;;;;;;;;;;8.27;100.00;99309.88;5056038;28;19951;-46
2023/04/01 04:01:42;;;;;;;;;;;;;;;8.28;100.00;99311.59;5037213;28;19916;-45
2023/04/01 04:04:07;;;;;;;;;;;;;;;8.34;100.00;99306.56;5050641;28;19917;-47
2023/04/01 04:06:32;;;;;;;;;;;;;;;8.30;100.00;99307.34;5053254;28;19923;-45
2023/04/01 04:08:57;;;;;;;;;;;;;;;8.27;100.00;99325.25;5052764;28;20278;-46
2023/04/01 04:11:23;;;;;;;;;;;;;;;8.23;100.00;99324.34;5057302;28;19973;-45
2023/04/01 04:13:48;;;;;;;;;;;;;;;8.18;100.00;99325.97;5054165;28;19970;-45
2023/04/01 04:16:14;;;;;;;;;;;;;;;8.18;100.00;99330.22;5053142;28;19962;-47
2023/04/01 04:18:40;;;;;;;;;;;;;;;8.18;100.00;99325.13;5055963;28;19927;-48
2023/04/01 04:21:05;;;;;;;;;;;;;;;8.27;100.00;99332.94;5054071;28;19917;-45
2023/04/01 04:23:33;;;;;;;;;;;;;;;8.22;100.00;99337.97;5040151;28;20413;-45
2023/04/01 04:25:59;;;;;;;;;;;;;;;8.24;100.00;99336.28;5056761;28;20007;-46
2023/04/01 04:28:26;;;;;;;;;;;;;;;8.16;100.00;99342.16;5050551;28;19920;-49
2023/04/01 04:30:51;;;;;;;;;;;;;;;8.09;100.00;99336.09;5046215;28;19920;-49
2023/04/01 04:33:16;;;;;;;;;;;;;;;8.17;100.00;99342.19;5051837;28;19923;-51
2023/04/01 04:35:42;;;;;;;;;;;;;;;8.12;100.00;99341.25;5048730;28;19916;-51
2023/04/01 04:38:07;;;;;;;;;;;;;;;8.09;100.00;99345.50;5051970;28;19971;-54
2023/04/01 04:40:32;;;;;;;;;;;;;;;8.10;100.00;99342.09;5053841;28;19916;-52
2023/04/01 04:42:57;;;;;;;;;;;;;;;8.13;100.00;99354.91;5050922;28;20866;-50
2023/04/01 04:45:23;;;;;;;;;;;;;;;8.07;100.00;99353.16;5055161;28;20292;-52
2023/04/01 04:47:48;;;;;;;;;;;;;;;8.03;100.00;99352.25;5053011;28;19916;-50
2023/04/01 04:50:13;;;;;;;;;;;;;;;8.12;100.00;99355.75;5055475;28;19969;-51
2023/04/01 04:52:38;;;;;;;;;;;;;;;8.11;100.00;99356.59;5056079;28;19917;-50
2023/04/01 04:55:04;;;;;;;;;;;;;;;8.10;100.00;99365.97;5051722;28;19925;-51
2023/04/01 04:57:29;;;;;;;;;;;;;;;8.05;100.00;99363.34;5052513;28;20406;-50
2023/04/01 04:59:55;;;;;;;;;;;;;;;8.01;100.00;99368.44;5050330;28;19973;-51
2023/04/01 05:02:20;;;;;;;;;;;;;;;8.03;100.00;99377.84;5051786;28;19936;-50
2023/04/01 05:04:46;;;;;;;;;;;;;;;8.01;100.00;99373.56;5052704;28;20082;-51
2023/04/01 05:07:11;;;;;;;;;;;;;;;8.02;100.00;99381.25;5047235;28;20393;-50
2023/04/01 05:09:36;;;;;;;;;;;;;;;8.04;100.00;99384.69;5048320;28;19916;-49
2023/04/01 05:12:02;;;;;;;;;;;;;;;8.00;100.00;99388.03;5047213;28;19925;-49
2023/04/01 05:14:27;;;;;;;;;;;;;;;8.01;100.00;99392.31;5050426;28;19916;-52
2023/04/01 05:16:54;;;;;;;;;;;;;;;8.06;100.00;99402.59;5050885;28;19921;-49
2023/04/01 05:19:19;;;;;;;;;;;;;;;8.01;100.00;99394.88;5047297;28;20729;-52
2023/04/01 05:21:44;;;;;;;;;;;;;;;7.98;100.00;99399.94;5046834;28;19998;-52
2023/04/01 05:24:10;;;;;;;;;;;;;;;8.00;100.00;99402.53;5038599;28;20466;-51
2023/04/01 05:26:36;;;;;;;;;;;;;;;8.00;100.00;99407.63;5050086;28;19920;-51
2023/04/01 05:29:02;;;;;;;;;;;;;;;8.00;100.00;99407.63;5048520;28;19924;-53
2023/04/01 05:31:27;;;;;;;;;;;;;;;7.99;100.00;99417.03;5046674;28;19924;-54
2023/04/01 05:33:53;;;;;;;;;;;;;;;7.99;100.00;99417.03;5047302;28;19927;-53
2023/04/01 05:36:19;;;;;;;;;;;;;;;7.99;100.00;99422.13;5049685;28;20358;-53
2023/04/01 05:38:45;;;;;;;;;;;;;;;8.04;100.00;99428.19;5049161;28;20031;-51
2023/04/01 05:41:11;;;;;;;;;;;;;;;8.05;100.00;99424.78;5046548;28;19917;-49
2023/04/01 05:43:36;;;;;;;;;;;;;;;8.03;100.00;99439.28;5047522;28;20393;-50
2023/04/01 05:46:02;;;;;;;;;;;;;;;8.05;100.00;99437.59;5051074;28;19927;-52
2023/04/01 05:48:27;;;;;;;;;;;;;;;8.09;100.00;99438.50;5050918;28;19917;-51
2023/04/01 05:50:52;;;;;;;;;;;;;;;8.11;100.00;99438.53;5048056;28;19932;-50
2023/04/01 05:53:17;;;;;;;;;;;;;;;8.10;100.00;99439.38;5047429;28;19928;-50
2023/04/01 05:55:43;;;;;;;;;;;;;;;8.16;100.00;99445.44;5051672;28;20368;-50
2023/04/01 05:58:08;;;;;;;;;;;;;;;8.17;100.00;99457.41;5050887;28;19924;-52
2023/04/01 06:00:33;;;;;;;;;;;;;;;8.15;100.00;99451.41;5048608;28;20374;-51
2023/04/01 06:02:59;;;;;;;;;;;;;;;8.20;100.00;99457.47;5047861;28;20286;-49
2023/04/01 06:05:27;;;;;;;;;;;;;;;8.18;100.00;99464.25;5045304;28;19920;-50
2023/04/01 06:07:57;;;;;;;;;;;;;;;8.20;100.00;99464.28;5051066;28;19921;-50
2023/04/01 06:10:27;;;;;;;;;;;;;;;8.23;100.00;99472.84;5047651;28;19959;-50
2023/04/01 06:13:12;;;;;;;;;;;;;;;8.23;100.00;99479.69;5047288;28;19913;-49
2023/04/01 06:16:04;;;;;;;;;;;;;;;8.29;100.00;99480.63;5049005;28;19917;-48
2023/04/01 06:18:41;;;;;;;;;;;;;;;8.27;100.00;99486.59;5043834;28;19998;-49
2023/04/01 06:21:36;;;;;;;;;;;;;;;8.31;100.00;99489.22;5048499;28;19924;-49
2023/04/01 06:24:07;;;;;;;;;;;;;;;8.34;100.00;99483.28;5031282;28;20004;-49
2023/04/01 06:26:38;;;;;;;;;;;;;;;8.33;100.00;99486.66;5046858;28;19923;-52
2023/04/01 06:29:12;;;;;;;;;;;;;;;8.37;100.00;99500.41;5050519;28;19917;-50
2023/04/01 06:31:57;;;;;;;;;;;;;;;8.40;100.00;99503.88;5048893;28;19923;-51
2023/04/01 06:34:34;;;;;;;;;;;;;;;8.43;100.00;99510.75;5035332;28;20331;-52
2023/04/01 06:37:02;;;;;;;;;;;;;;;8.45;100.00;99517.63;5047886;28;19939;-52
2023/04/01 06:39:28;;;;;;;;;;;;;;;8.44;100.00;99515.91;5047954;28;19946;-52
2023/04/01 06:42:05;;;;;;;;;;;;;;;8.47;100.00;99513.38;5046768;28;19921;-52
2023/04/01 06:44:33;;;;;;;;;;;;;;;8.52;100.00;99521.13;5051089;28;19920;-51
2023/04/01 06:47:02;;;;;;;;;;;;;;;8.55;100.00;99518.59;5047615;28;19924;-52
2023/04/01 06:49:36;;;;;;;;;;;;;;;8.55;100.00;99519.50;5046455;28;19912;-52
2023/04/01 06:52:14;;;;;;;;;;;;;;;8.58;100.00;99526.34;5049394;28;19943;-59
2023/04/01 06:54:45;;;;;;;;;;;;;;;8.61;100.00;99526.38;5046475;28;19912;-54
2023/04/01 06:57:22;;;;;;;;;;;;;;;8.60;100.00;99530.66;5054952;28;20380;-54
2023/04/01 06:59:48;;;;;;;;;;;;;;;8.59;100.00;99538.31;5048770;28;19909;-53
2023/04/01 07:02:13;;;;;;;;;;;;;;;8.59;100.00;99546.88;5050595;28;20417;-51
2023/04/01 07:04:41;;;;;;;;;;;;;;;8.58;100.00;99549.41;5055990;28;19927;-51
2023/04/01 07:07:12;;;;;;;;;;;;;;;8.59;100.00;99554.56;5052011;28;19912;-54
2023/04/01 07:09:40;;;;;;;;;;;;;;;8.59;100.00;99552.00;5050529;28;20344;-56
2023/04/01 07:12:35;;;;;;;;;;;;;;;8.58;100.00;99557.97;5053696;28;20058;-51
2023/04/01 07:15:03;;;;;;;;;;;;;;;8.60;100.00;99560.53;5038403;28;19934;-51
2023/04/01 07:17:32;;;;;;;;;;;;;;;8.61;100.00;99557.13;5054573;28;19909;-51
2023/04/01 07:20:09;;;;;;;;;;;;;;;8.62;100.00;99566.56;5058216;28;19908;-50
2023/04/01 07:22:44;;;;;;;;;;;;;;;8.66;100.00;99570.00;5058357;28;19997;-44
2023/04/01 07:25:27;;;;;;;;;;;;;;;8.66;100.00;99575.13;5055876;28;19912;-48
2023/04/01 07:27:55;;;;;;;;;;;;;;;8.66;100.00;99583.69;5053465;28;20287;-46
2023/04/01 07:30:22;;;;;;;;;;;;;;;8.67;100.00;99587.97;5051686;28;19999;-45
2023/04/01 07:32:50;;;;;;;;;;;;;;;8.70;100.00;99589.75;5054303;28;19908;-43
2023/04/01 07:35:32;;;;;;;;;;;;;;;8.72;100.00;99599.16;5053781;28;19917;-45
2023/04/01 07:38:04;;;;;;;;;;;;;;;8.78;100.00;99600.97;5061388;28;19912;-44
2023/04/01 07:40:47;;;;;;;;;;;;;;;8.88;100.00;99600.25;5051540;28;19908;-44
2023/04/01 07:43:12;;;;;;;;;;;;;;;8.88;100.00;99596.84;5056955;28;19983;-45
2023/04/01 07:45:52;;;;;;;;;;;;;;;8.86;100.00;99601.94;5055801;28;19916;-45
2023/04/01 07:48:17;;;;;;;;;;;;;;;8.86;100.00;99607.94;5062209;28;19963;-48
2023/04/01 07:51:01;;;;;;;;;;;;;;;8.89;100.00;99614.81;5057807;28;19951;-52
2023/04/01 07:53:26;;;;;;;;;;;;;;;8.89;100.00;99614.81;5059157;28;19939;-51
2023/04/01 07:55:58;;;;;;;;;;;;;;;8.88;100.00;99613.06;5058884;28;19921;-52
2023/04/01 07:58:42;;;;;;;;;;;;;;;8.88;100.00;99625.03;5063859;28;20356;-49
2023/04/01 08:01:19;;;;;;;;;;;;;;;8.85;100.00;99629.25;5054382;28;19912;-52
2023/04/01 08:03:47;;;;;;;;;;;;;;;8.85;100.00;99633.53;5054581;28;19913;-49
2023/04/01 08:06:15;;;;;;;;;;;;;;;8.86;100.00;99635.28;5051673;28;19915;-51
2023/04/01 08:08:41;;;;;;;;;;;;;;;8.87;100.00;99642.13;5057014;28;19913;-48
2023/04/01 08:11:19;;;;;;;;;;;;;;;8.87;100.00;99644.69;5052676;28;20398;-52
2023/04/01 08:13:58;;;;;;;;;;;;;;;8.86;100.00;99653.22;5053386;28;20067;-52
2023/04/01 08:16:33;;;;;;;;;;;;;;;8.90;100.00;99649.84;5060317;28;20060;-53
2023/04/01 08:19:13;;;;;;;;;;;;;;;8.92;100.00;99649.84;5058762;28;19916;-53
2023/04/01 08:21:42;;;;;;;;;;;;;;;8.92;100.00;99658.44;5056460;28;19944;-48
2023/04/01 08:24:16;;;;;;;;;;;;;;;8.90;100.00;99660.09;5059120;28;19910;-52
2023/04/01 08:26:45;;;;;;;;;;;;;;;8.95;100.00;99663.59;5037698;28;20341;-52
2023/04/01 08:29:13;;;;;;;;;;;;;;;8.93;100.00;99672.97;5052850;28;19912;-51
2023/04/01 08:31:44;;;;;;;;;;;;;;;8.93;100.00;99672.97;5057063;28;19912;-51
2023/04/01 08:34:19;;;;;;;;;;;;;;;8.93;100.00;99678.09;5060106;28;19916;-51
2023/04/01 08:36:53;;;;;;;;;;;;;;;8.92;100.00;99671.25;5052182;28;19999;-48
2023/04/01 08:39:34;;;;;;;;;;;;;;;8.96;100.00;99674.72;5055643;28;19912;-50
2023/04/01 08:42:02;;;;;;;;;;;;;;;8.99;100.00;99683.34;5058053;28;19987;-45
2023/04/01 08:44:30;;;;;;;;;;;;;;;8.98;100.00;99683.28;5052768;28;20422;-45
2023/04/01 08:46:58;;;;;;;;;;;;;;;9.00;100.00;99687.63;5060497;28;19912;-45
2023/04/01 08:49:26;;;;;;;;;;;;;;;9.02;100.00;99688.50;5056924;28;20477;-47
2023/04/01 08:51:55;;;;;;;;;;;;;;;9.02;100.00;99698.75;5057513;28;19970;-45
2023/04/01 08:54:21;;;;;;;;;;;;;;;9.05;100.00;99690.25;5052192;28;19912;-48
2023/04/01 08:56:50;;;;;;;;;;;;;;;9.05;100.00;99696.25;5052958;28;20260;-48
2023/04/01 08:59:23;;;;;;;;;;;;;;;9.01;100.00;99703.84;5054274;28;20618;-47
2023/04/01 09:01:57;;;;;;;;;;;;;;;9.01;100.00;99703.84;5053449;28;19912;-48
2023/04/01 09:04:22;;;;;;;;;;;;;;;9.00;100.00;99709.84;5052315;28;19912;-45
2023/04/01 09:06:57;;;;;;;;;;;;;;;9.02;100.00;99719.25;5054814;28;19939;-44
2023/04/01 09:09:37;;;;;;;;;;;;;;;9.05;100.00;99721.03;5053160;28;20364;-45
2023/04/01 09:12:11;;;;;;;;;;;;;;;9.13;100.00;99735.69;5053094;28;19990;-46
2023/04/01 09:14:36;;;;;;;;;;;;;;;9.21;100.00;99738.34;5051234;28;19913;-45
2023/04/01 09:17:25;;;;;;;;;;;;;;;9.23;100.00;99731.56;5061874;28;19908;-48
2023/04/01 09:19:57;;;;;;;;;;;;;;;9.23;100.00;99734.13;5057934;28;20011;-48
2023/04/01 09:22:29;;;;;;;;;;;;;;;9.24;100.00;99742.69;5059177;28;20355;-47
2023/04/01 09:25:13;;;;;;;;;;;;;;;9.18;100.00;99740.03;5057590;28;20013;-48
2023/04/01 09:27:49;;;;;;;;;;;;;;;9.21;100.00;99740.06;5056371;28;19919;-45
2023/04/01 09:30:50;;;;;;;;;;;;;;;9.23;100.00;99744.41;5060473;28;20274;-45
2023/04/01 09:33:36;;;;;;;;;;;;;;;9.27;100.00;99752.97;5008072;28;20527;-49
2023/04/01 09:36:01;;;;;;;;;;;;;;;9.26;100.00;99749.56;5056920;28;19916;-47
2023/04/01 09:38:35;;;;;;;;;;;;;;;9.26;100.00;99758.97;5064935;28;19916;-46
2023/04/01 09:41:21;;;;;;;;;;;;;;;9.28;100.00;99757.28;5049765;28;19909;-47
2023/04/01 09:43:56;;;;;;;;;;;;;;;9.26;100.00;99766.66;5039327;28;19924;-45
2023/04/01 09:46:41;;;;;;;;;;;;;;;9.24;100.00;99760.66;5059559;28;19927;-45
2023/04/01 09:49:06;;;;;;;;;;;;;;;9.27;100.00;99766.66;5042315;28;19957;-47
2023/04/01 09:51:40;;;;;;;;;;;;;;;9.22;100.00;99765.75;5058185;28;19920;-46
2023/04/01 09:54:15;;;;;;;;;;;;;;;9.25;100.00;99772.63;5059307;28;19966;-45
2023/04/01 09:56:52;;;;;;;;;;;;;;;9.25;100.00;99770.06;5058053;28;19912;-47
2023/04/01 09:59:32;;;;;;;;;;;;;;;9.28;100.00;99777.78;5054106;28;19917;-46
2023/04/01 10:01:57;;;;;;;;;;;;;;;9.27;100.00;99771.81;5054655;28;19909;-45
2023/04/01 10:04:26;;;;;;;;;;;;;;;9.38;100.00;99782.25;5058217;28;19954;-44
2023/04/01 10:06:54;;;;;;;;;;;;;;;9.46;100.00;99779.78;5052339;28;20007;-46
2023/04/01 10:09:26;;;;;;;;;;;;;;;9.56;100.00;99784.22;5051499;28;19909;-47
2023/04/01 10:12:01;;;;;;;;;;;;;;;9.63;100.00;99786.03;5050313;28;19946;-48
2023/04/01 10:14:45;;;;;;;;;;;;;;;9.78;100.00;99795.69;5053239;28;19908;-46
2023/04/01 10:17:33;;;;;;;;;;;;;;;9.88;100.00;99798.38;5058807;28;19918;-47
2023/04/01 10:20:17;;;;;;;;;;;;;;;9.99;100.00;99795.94;5060982;28;20261;-48
2023/04/01 10:22:58;;;;;;;;;;;;;;;9.88;100.00;99800.94;5059278;28;19909;-47
2023/04/01 10:25:39;;;;;;;;;;;;;;;9.92;100.00;99800.16;5057912;28;19999;-48
2023/04/01 10:28:20;;;;;;;;;;;;;;;10.03;100.00;99804.56;5060072;28;20007;-45
2023/04/01 10:30:45;;;;;;;;;;;;;;;10.04;100.00;99799.44;5051312;28;19912;-48
2023/04/01 10:33:19;;;;;;;;;;;;;;;10.05;100.00;99806.31;5035824;28;20434;-47
2023/04/01 10:35:44;;;;;;;;;;;;;;;10.08;100.00;99811.50;5035245;28;19916;-48
2023/04/01 10:38:13;;;;;;;;;;;;;;;10.00;100.00;99813.09;5050277;28;19984;-46
2023/04/01 10:40:53;;;;;;;;;;;;;;;9.94;100.00;99821.56;5050768;28;19909;-45
2023/04/01 10:43:24;;;;;;;;;;;;;;;9.94;100.00;99816.44;5055320;28;19915;-46
2023/04/01 10:45:52;;;;;;;;;;;;;;;9.95;100.00;99817.31;5056024;28;19984;-48
2023/04/01 10:48:36;;;;;;;;;;;;;;;9.90;100.00;99816.38;5062510;28;19916;-49
2023/04/01 10:51:12;;;;;;;;;;;;;;;9.83;100.00;99815.44;5058596;28;20289;-45
2023/04/01 10:53:45;;;;;;;;;;;;;;;9.84;100.00;99824.00;5055403;28;19909;-44
2023/04/01 10:56:29;;;;;;;;;;;;;;;9.90;100.00;99826.66;5060819;28;20428;-45
2023/04/01 10:59:13;;;;;;;;;;;;;;;9.90;100.00;99822.38;5060243;28;19925;-44
2023/04/01 11:02:08;;;;;;;;;;;;;;;9.90;100.00;99830.09;5063243;28;19987;-45
2023/04/01 11:04:52;;;;;;;;;;;;;;;9.81;100.00;99831.66;5062053;28;19965;-47
2023/04/01 11:07:41;;;;;;;;;;;;;;;9.77;100.00;99841.03;5069208;28;19964;-47
2023/04/01 11:10:37;;;;;;;;;;;;;;;9.71;100.00;99837.47;5055748;28;19943;-46
2023/04/01 11:13:21;;;;;;;;;;;;;;;9.70;100.00;99841.75;5052468;28;19912;-47
2023/04/01 11:16:05;;;;;;;;;;;;;;;9.74;100.00;99840.97;5058099;28;19921;-47
2023/04/01 11:18:48;;;;;;;;;;;;;;;9.69;100.00;99845.16;5060637;28;19986;-48
2023/04/01 11:21:14;;;;;;;;;;;;;;;9.69;100.00;99850.28;5055189;28;19958;-46
2023/04/01 11:24:17;;;;;;;;;;;;;;;9.67;100.00;99852.84;5060714;28;19979;-47
2023/04/01 11:27:10;;;;;;;;;;;;;;;9.62;100.00;99851.03;4989041;28;19974;-48
2023/04/01 11:29:44;;;;;;;;;;;;;;;9.62;100.00;99861.31;4989407;28;19946;-45
2023/04/01 11:32:25;;;;;;;;;;;;;;;9.55;100.00;99860.34;5037075;28;19967;-47
2023/04/01 11:35:12;;;;;;;;;;;;;;;9.57;100.00;99862.94;5055301;28;19916;-45
2023/04/01 11:37:40;;;;;;;;;;;;;;;9.63;100.00;99870.72;5053234;28;19995;-47
2023/04/01 11:40:06;;;;;;;;;;;;;;;9.70;100.00;99867.41;5052071;28;20280;-48
2023/04/01 11:42:55;;;;;;;;;;;;;;;9.73;100.00;99869.19;5036558;28;19955;-45
2023/04/01 11:45:35;;;;;;;;;;;;;;;9.74;100.00;99873.47;5054039;28;19956;-44
2023/04/01 11:48:08;;;;;;;;;;;;;;;9.81;100.00;99875.28;5057281;28;19916;-45
2023/04/01 11:50:50;;;;;;;;;;;;;;;9.86;100.00;99882.22;5063135;28;19909;-48
2023/04/01 11:53:18;;;;;;;;;;;;;;;9.98;100.00;99885.81;5063808;28;19915;-45
2023/04/01 11:55:46;;;;;;;;;;;;;;;10.06;100.00;99885.06;5061899;28;20690;-48
2023/04/01 11:58:30;;;;;;;;;;;;;;;10.09;100.00;99889.41;5059342;28;19950;-47
2023/04/01 12:01:04;;;;;;;;;;;;;;;10.11;100.00;99896.28;5055294;28;19962;-45
2023/04/01 12:03:41;;;;;;;;;;;;;;;10.09;100.00;99895.41;5054421;28;19913;-48
2023/04/01 12:06:12;;;;;;;;;;;;;;;10.10;100.00;99896.28;5051987;28;19916;-46
2023/04/01 12:08:56;;;;;;;;;;;;;;;10.13;100.00;99904.91;5056186;28;20011;-46
2023/04/01 12:11:27;;;;;;;;;;;;;;;10.09;100.00;99905.69;5056421;28;20011;-47
2023/04/01 12:13:52;;;;;;;;;;;;;;;10.03;100.00;99907.31;5035349;28;19939;-45
2023/04/01 12:16:21;;;;;;;;;;;;;;;9.92;100.00;99922.53;5053700;28;20398;-47
2023/04/01 12:19:12;;;;;;;;;;;;;;;9.91;100.00;99920.81;5052636;28;19923;-46
2023/04/01 12:21:43;;;;;;;;;;;;;;;9.94;100.00;99913.16;5027368;28;19919;-46
2023/04/01 12:24:08;;;;;;;;;;;;;;;10.01;100.00;99924.38;5054024;28;19923;-45
2023/04/01 12:26:48;;;;;;;;;;;;;;;10.09;100.00;99926.25;5053144;28;19909;-46
2023/04/01 12:29:20;;;;;;;;;;;;;;;10.04;100.00;99929.56;5052048;28;19962;-45
2023/04/01 12:31:45;;;;;;;;;;;;;;;10.01;100.00;99932.06;5037090;28;20022;-47
2023/04/01 12:34:29;;;;;;;;;;;;;;;9.98;100.00;99922.63;5053276;28;19979;-47
2023/04/01 12:36:54;;;;;;;;;;;;;;;9.96;100.00;99939.75;5052338;28;20365;-48
2023/04/01 12:39:32;;;;;;;;;;;;;;;9.93;100.00;99940.53;5050730;28;20522;-48
2023/04/01 12:41:57;;;;;;;;;;;;;;;9.95;100.00;99948.28;5058573;28;19936;-46
2023/04/01 12:44:38;;;;;;;;;;;;;;;9.98;100.00;99947.47;5054996;28;19964;-47
2023/04/01 12:47:21;;;;;;;;;;;;;;;9.93;100.00;99952.50;5059727;28;19915;-46
2023/04/01 12:50:09;;;;;;;;;;;;;;;9.89;100.00;99943.06;5054653;28;20011;-45
2023/04/01 12:53:07;;;;;;;;;;;;;;;9.83;100.00;99958.38;5063064;28;19916;-48
2023/04/01 12:55:38;;;;;;;;;;;;;;;9.82;100.00;99957.47;5021327;28;20358;-48
2023/04/01 12:58:13;;;;;;;;;;;;;;;9.88;100.00;99961.84;5060641;28;19916;-46
2023/04/01 13:00:48;;;;;;;;;;;;;;;9.91;100.00;99961.91;5058585;28;19970;-46
2023/04/01 13:03:32;;;;;;;;;;;;;;;9.91;100.00;99959.34;5059813;28;19909;-45
2023/04/01 13:06:16;;;;;;;;;;;;;;;9.92;100.00;99968.75;5055303;28;19942;-48